sensor_id;sensor_type;location;lat;lon;timestamp;temperature;humidity
15969;DHT22;8085;53.472;9.794;2023-07-29T00:00:08;17.30;97.70
15969;DHT22;8085;53.472;9.794;2023-07-29T00:02:36;17.30;97.70
15969;DHT22;8085;53.472;9.794;2023-07-29T00:05:03;17.30;97.70
15969;DHT22;8085;53.472;9.794;2023-07-29T00:07:30;17.20;97.70
15969;DHT22;8085;53.472;9.794;2023-07-29T00:09:58;17.10;97.70
15969;DHT22;8085;53.472;9.794;2023-07-29T00:12:25;17.10;97.70
15969;DHT22;8085;53.472;9.794;2023-07-29T00:14:52;17.00;97.70
15969;DHT22;8085;53.472;9.794;2023-07-29T00:17:18;17.10;97.80
15969;DHT22;8085;53.472;9.794;2023-07-29T00:19:46;17.00;97.90
15969;DHT22;8085;53.472;9.794;2023-07-29T00:22:13;16.90;97.80
15969;DHT22;8085;53.472;9.794;2023-07-29T00:24:40;16.90;97.90
15969;DHT22;8085;53.472;9.794;2023-07-29T00:27:08;16.80;97.90
15969;DHT22;8085;53.472;9.794;2023-07-29T00:29:35;16.70;98.00
15969;DHT22;8085;53.472;9.794;2023-07-29T00:32:02;16.70;98.00
15969;DHT22;8085;53.472;9.794;2023-07-29T00:34:29;16.70;98.00
15969;DHT22;8085;53.472;9.794;2023-07-29T00:36:56;16.60;98.00
15969;DHT22;8085;53.472;9.794;2023-07-29T00:39:23;16.60;98.10
15969;DHT22;8085;53.472;9.794;2023-07-29T00:41:50;16.70;98.30
15969;DHT22;8085;53.472;9.794;2023-07-29T00:44:18;16.70;98.50
15969;DHT22;8085;53.472;9.794;2023-07-29T00:46:46;16.70;98.40
15969;DHT22;8085;53.472;9.794;2023-07-29T00:49:13;16.70;98.50
15969;DHT22;8085;53.472;9.794;2023-07-29T00:51:40;16.80;98.60
15969;DHT22;8085;53.472;9.794;2023-07-29T00:54:07;16.80;98.60
15969;DHT22;8085;53.472;9.794;2023-07-29T00:56:34;16.90;98.70
15969;DHT22;8085;53.472;9.794;2023-07-29T00:59:01;16.80;98.60
15969;DHT22;8085;53.472;9.794;2023-07-29T01:01:31;16.90;98.60
15969;DHT22;8085;53.472;9.794;2023-07-29T01:03:58;16.90;98.80
15969;DHT22;8085;53.472;9.794;2023-07-29T01:06:33;16.90;98.80
15969;DHT22;8085;53.472;9.794;2023-07-29T01:09:03;16.90;98.80
15969;DHT22;8085;53.472;9.794;2023-07-29T01:11:38;17.00;98.90
15969;DHT22;8085;53.472;9.794;2023-07-29T01:14:21;17.00;98.90
15969;DHT22;8085;53.472;9.794;2023-07-29T01:16:55;17.10;99.00
15969;DHT22;8085;53.472;9.794;2023-07-29T01:19:42;17.10;99.10
15969;DHT22;8085;53.472;9.794;2023-07-29T01:22:10;17.20;99.10
15969;DHT22;8085;53.472;9.794;2023-07-29T01:24:39;17.30;99.10
15969;DHT22;8085;53.472;9.794;2023-07-29T01:27:06;17.30;99.10
15969;DHT22;8085;53.472;9.794;2023-07-29T01:29:33;17.30;99.10
15969;DHT22;8085;53.472;9.794;2023-07-29T01:32:04;17.30;99.10
15969;DHT22;8085;53.472;9.794;2023-07-29T01:34:39;17.30;99.10
15969;DHT22;8085;53.472;9.794;2023-07-29T01:37:10;17.40;99.30
15969;DHT22;8085;53.472;9.794;2023-07-29T01:39:40;17.40;99.40
15969;DHT22;8085;53.472;9.794;2023-07-29T01:42:07;17.40;99.40
15969;DHT22;8085;53.472;9.794;2023-07-29T01:44:35;17.40;99.40
15969;DHT22;8085;53.472;9.794;2023-07-29T01:47:02;17.30;99.40
15969;DHT22;8085;53.472;9.794;2023-07-29T01:49:29;17.30;99.40
15969;DHT22;8085;53.472;9.794;2023-07-29T01:51:56;17.30;99.50
15969;DHT22;8085;53.472;9.794;2023-07-29T01:54:23;17.40;99.50
15969;DHT22;8085;53.472;9.794;2023-07-29T01:56:51;17.30;99.50
15969;DHT22;8085;53.472;9.794;2023-07-29T01:59:18;17.40;99.90
15969;DHT22;8085;53.472;9.794;2023-07-29T02:01:45;17.30;99.60
15969;DHT22;8085;53.472;9.794;2023-07-29T02:04:12;17.30;99.60
15969;DHT22;8085;53.472;9.794;2023-07-29T02:06:39;17.30;99.60
15969;DHT22;8085;53.472;9.794;2023-07-29T02:09:06;17.30;99.60
15969;DHT22;8085;53.472;9.794;2023-07-29T02:11:33;17.30;99.60
15969;DHT22;8085;53.472;9.794;2023-07-29T02:14:01;17.20;99.60
15969;DHT22;8085;53.472;9.794;2023-07-29T02:16:28;17.20;99.70
15969;DHT22;8085;53.472;9.794;2023-07-29T02:18:55;17.30;99.70
15969;DHT22;8085;53.472;9.794;2023-07-29T02:21:22;17.30;99.70
15969;DHT22;8085;53.472;9.794;2023-07-29T02:23:49;17.20;99.70
15969;DHT22;8085;53.472;9.794;2023-07-29T02:26:16;17.20;99.70
15969;DHT22;8085;53.472;9.794;2023-07-29T02:28:43;17.20;99.70
15969;DHT22;8085;53.472;9.794;2023-07-29T02:31:16;17.20;99.70
15969;DHT22;8085;53.472;9.794;2023-07-29T02:33:43;17.10;99.70
15969;DHT22;8085;53.472;9.794;2023-07-29T02:36:12;17.10;99.70
15969;DHT22;8085;53.472;9.794;2023-07-29T02:38:39;17.10;99.80
15969;DHT22;8085;53.472;9.794;2023-07-29T02:41:06;17.10;99.80
15969;DHT22;8085;53.472;9.794;2023-07-29T02:43:34;17.10;99.90
15969;DHT22;8085;53.472;9.794;2023-07-29T02:46:01;17.10;99.90
15969;DHT22;8085;53.472;9.794;2023-07-29T02:48:29;17.00;99.80
15969;DHT22;8085;53.472;9.794;2023-07-29T02:50:56;17.00;99.80
15969;DHT22;8085;53.472;9.794;2023-07-29T02:53:23;17.00;99.80
15969;DHT22;8085;53.472;9.794;2023-07-29T02:55:50;16.90;99.80
15969;DHT22;8085;53.472;9.794;2023-07-29T02:58:17;16.90;99.80
15969;DHT22;8085;53.472;9.794;2023-07-29T03:00:44;16.90;99.80
15969;DHT22;8085;53.472;9.794;2023-07-29T03:03:13;16.90;99.90
15969;DHT22;8085;53.472;9.794;2023-07-29T03:05:41;16.80;99.90
15969;DHT22;8085;53.472;9.794;2023-07-29T03:08:08;16.90;99.90
15969;DHT22;8085;53.472;9.794;2023-07-29T03:10:35;16.90;99.90
15969;DHT22;8085;53.472;9.794;2023-07-29T03:13:01;16.90;99.90
15969;DHT22;8085;53.472;9.794;2023-07-29T03:15:28;17.00;99.90
15969;DHT22;8085;53.472;9.794;2023-07-29T03:17:55;16.90;99.90
15969;DHT22;8085;53.472;9.794;2023-07-29T03:20:22;17.00;99.90
15969;DHT22;8085;53.472;9.794;2023-07-29T03:22:50;16.90;99.90
15969;DHT22;8085;53.472;9.794;2023-07-29T03:25:17;17.00;99.90
15969;DHT22;8085;53.472;9.794;2023-07-29T03:27:44;17.00;99.90
15969;DHT22;8085;53.472;9.794;2023-07-29T03:30:11;17.10;99.90
15969;DHT22;8085;53.472;9.794;2023-07-29T03:32:43;17.30;99.90
15969;DHT22;8085;53.472;9.794;2023-07-29T03:35:11;17.30;99.90
15969;DHT22;8085;53.472;9.794;2023-07-29T03:37:37;17.40;99.90
15969;DHT22;8085;53.472;9.794;2023-07-29T03:40:07;17.60;99.90
15969;DHT22;8085;53.472;9.794;2023-07-29T03:42:34;17.60;99.90
15969;DHT22;8085;53.472;9.794;2023-07-29T03:45:01;17.70;99.90
15969;DHT22;8085;53.472;9.794;2023-07-29T03:47:28;17.70;99.90
15969;DHT22;8085;53.472;9.794;2023-07-29T03:49:55;17.60;99.90
15969;DHT22;8085;53.472;9.794;2023-07-29T03:52:22;17.80;99.90
15969;DHT22;8085;53.472;9.794;2023-07-29T03:54:49;17.80;99.90
15969;DHT22;8085;53.472;9.794;2023-07-29T03:57:17;17.80;99.90
15969;DHT22;8085;53.472;9.794;2023-07-29T03:59:44;17.80;99.90
15969;DHT22;8085;53.472;9.794;2023-07-29T04:02:10;17.80;99.90
15969;DHT22;8085;53.472;9.794;2023-07-29T04:04:37;17.90;99.90
15969;DHT22;8085;53.472;9.794;2023-07-29T04:07:05;17.90;99.90
15969;DHT22;8085;53.472;9.794;2023-07-29T04:09:32;17.90;99.90
15969;DHT22;8085;53.472;9.794;2023-07-29T04:11:59;17.90;99.90
15969;DHT22;8085;53.472;9.794;2023-07-29T04:14:27;17.90;99.90
15969;DHT22;8085;53.472;9.794;2023-07-29T04:16:54;17.80;99.90
15969;DHT22;8085;53.472;9.794;2023-07-29T04:19:21;17.90;99.90
15969;DHT22;8085;53.472;9.794;2023-07-29T04:21:47;17.90;99.90
15969;DHT22;8085;53.472;9.794;2023-07-29T04:24:16;17.90;99.90
15969;DHT22;8085;53.472;9.794;2023-07-29T04:26:43;18.00;99.90
15969;DHT22;8085;53.472;9.794;2023-07-29T04:29:10;18.00;99.90
15969;DHT22;8085;53.472;9.794;2023-07-29T04:31:38;18.00;99.90
15969;DHT22;8085;53.472;9.794;2023-07-29T04:34:05;18.00;99.90
15969;DHT22;8085;53.472;9.794;2023-07-29T04:36:32;18.00;99.90
15969;DHT22;8085;53.472;9.794;2023-07-29T04:38:59;18.00;99.90
15969;DHT22;8085;53.472;9.794;2023-07-29T04:41:26;18.00;99.90
15969;DHT22;8085;53.472;9.794;2023-07-29T04:43:52;17.90;99.90
15969;DHT22;8085;53.472;9.794;2023-07-29T04:46:19;18.10;99.90
15969;DHT22;8085;53.472;9.794;2023-07-29T04:48:47;17.90;99.90
15969;DHT22;8085;53.472;9.794;2023-07-29T04:51:14;18.00;99.90
15969;DHT22;8085;53.472;9.794;2023-07-29T04:53:41;18.00;99.90
15969;DHT22;8085;53.472;9.794;2023-07-29T04:56:08;18.00;99.90
15969;DHT22;8085;53.472;9.794;2023-07-29T04:58:35;18.00;99.90
15969;DHT22;8085;53.472;9.794;2023-07-29T05:01:01;18.00;99.90
15969;DHT22;8085;53.472;9.794;2023-07-29T05:03:28;18.00;99.90
15969;DHT22;8085;53.472;9.794;2023-07-29T05:05:58;18.10;99.90
15969;DHT22;8085;53.472;9.794;2023-07-29T05:08:25;18.00;99.90
15969;DHT22;8085;53.472;9.794;2023-07-29T05:10:52;18.10;99.90
15969;DHT22;8085;53.472;9.794;2023-07-29T05:13:20;18.20;99.90
15969;DHT22;8085;53.472;9.794;2023-07-29T05:15:47;18.20;99.90
15969;DHT22;8085;53.472;9.794;2023-07-29T05:18:15;18.30;99.90
15969;DHT22;8085;53.472;9.794;2023-07-29T05:20:42;18.30;99.90
15969;DHT22;8085;53.472;9.794;2023-07-29T05:23:10;18.40;99.90
15969;DHT22;8085;53.472;9.794;2023-07-29T05:25:37;18.50;99.90
15969;DHT22;8085;53.472;9.794;2023-07-29T05:28:04;18.50;99.90
15969;DHT22;8085;53.472;9.794;2023-07-29T05:30:32;18.40;99.90
15969;DHT22;8085;53.472;9.794;2023-07-29T05:32:59;18.50;99.90
15969;DHT22;8085;53.472;9.794;2023-07-29T05:35:26;18.50;99.90
15969;DHT22;8085;53.472;9.794;2023-07-29T05:37:53;18.50;99.90
15969;DHT22;8085;53.472;9.794;2023-07-29T05:40:21;18.50;99.90
15969;DHT22;8085;53.472;9.794;2023-07-29T05:42:48;18.40;99.90
15969;DHT22;8085;53.472;9.794;2023-07-29T05:45:15;18.40;99.90
15969;DHT22;8085;53.472;9.794;2023-07-29T05:47:42;18.30;99.90
15969;DHT22;8085;53.472;9.794;2023-07-29T05:50:09;18.30;99.90
15969;DHT22;8085;53.472;9.794;2023-07-29T05:52:37;18.30;99.90
15969;DHT22;8085;53.472;9.794;2023-07-29T05:55:04;18.30;99.90
15969;DHT22;8085;53.472;9.794;2023-07-29T05:57:32;18.20;99.90
15969;DHT22;8085;53.472;9.794;2023-07-29T05:59:59;18.20;99.90
15969;DHT22;8085;53.472;9.794;2023-07-29T06:02:26;18.20;99.90
15969;DHT22;8085;53.472;9.794;2023-07-29T06:04:53;18.30;99.90
15969;DHT22;8085;53.472;9.794;2023-07-29T06:07:20;18.40;99.90
15969;DHT22;8085;53.472;9.794;2023-07-29T06:09:47;18.50;99.90
15969;DHT22;8085;53.472;9.794;2023-07-29T06:12:14;18.60;99.90
15969;DHT22;8085;53.472;9.794;2023-07-29T06:14:42;18.70;99.90
15969;DHT22;8085;53.472;9.794;2023-07-29T06:17:09;18.70;99.90
15969;DHT22;8085;53.472;9.794;2023-07-29T06:19:37;18.60;99.90
15969;DHT22;8085;53.472;9.794;2023-07-29T06:22:04;18.70;99.90
15969;DHT22;8085;53.472;9.794;2023-07-29T06:24:32;18.70;99.90
15969;DHT22;8085;53.472;9.794;2023-07-29T06:26:59;18.80;99.90
15969;DHT22;8085;53.472;9.794;2023-07-29T06:29:25;18.70;99.90
15969;DHT22;8085;53.472;9.794;2023-07-29T06:31:53;18.80;99.90
15969;DHT22;8085;53.472;9.794;2023-07-29T06:34:20;18.80;99.90
15969;DHT22;8085;53.472;9.794;2023-07-29T06:36:48;18.70;99.90
15969;DHT22;8085;53.472;9.794;2023-07-29T06:39:14;18.80;99.90
15969;DHT22;8085;53.472;9.794;2023-07-29T06:41:41;18.80;99.90
15969;DHT22;8085;53.472;9.794;2023-07-29T06:44:08;18.90;99.90
15969;DHT22;8085;53.472;9.794;2023-07-29T06:46:35;19.10;99.90
15969;DHT22;8085;53.472;9.794;2023-07-29T06:49:04;19.20;99.90
15969;DHT22;8085;53.472;9.794;2023-07-29T06:51:31;19.20;99.90
15969;DHT22;8085;53.472;9.794;2023-07-29T06:54:00;19.20;99.60
15969;DHT22;8085;53.472;9.794;2023-07-29T06:56:27;19.30;99.10
15969;DHT22;8085;53.472;9.794;2023-07-29T06:58:54;19.30;99.10
15969;DHT22;8085;53.472;9.794;2023-07-29T07:01:21;19.20;99.10
15969;DHT22;8085;53.472;9.794;2023-07-29T07:03:48;19.20;99.20
15969;DHT22;8085;53.472;9.794;2023-07-29T07:06:16;19.20;99.30
15969;DHT22;8085;53.472;9.794;2023-07-29T07:08:43;19.20;99.30
15969;DHT22;8085;53.472;9.794;2023-07-29T07:11:09;19.20;99.20
15969;DHT22;8085;53.472;9.794;2023-07-29T07:13:36;19.20;99.20
15969;DHT22;8085;53.472;9.794;2023-07-29T07:16:03;19.20;99.30
15969;DHT22;8085;53.472;9.794;2023-07-29T07:18:30;19.20;99.30
15969;DHT22;8085;53.472;9.794;2023-07-29T07:20:57;19.20;99.30
15969;DHT22;8085;53.472;9.794;2023-07-29T07:23:28;19.20;99.40
15969;DHT22;8085;53.472;9.794;2023-07-29T07:25:55;19.20;99.30
15969;DHT22;8085;53.472;9.794;2023-07-29T07:28:22;19.20;99.30
15969;DHT22;8085;53.472;9.794;2023-07-29T07:30:49;19.30;99.00
15969;DHT22;8085;53.472;9.794;2023-07-29T07:33:16;19.30;98.90
15969;DHT22;8085;53.472;9.794;2023-07-29T07:35:43;19.30;99.00
15969;DHT22;8085;53.472;9.794;2023-07-29T07:38:10;19.30;98.80
15969;DHT22;8085;53.472;9.794;2023-07-29T07:40:38;19.30;98.80
15969;DHT22;8085;53.472;9.794;2023-07-29T07:43:05;19.30;98.80
15969;DHT22;8085;53.472;9.794;2023-07-29T07:45:32;19.30;98.80
15969;DHT22;8085;53.472;9.794;2023-07-29T07:47:59;19.30;98.80
15969;DHT22;8085;53.472;9.794;2023-07-29T07:50:29;19.30;98.80
15969;DHT22;8085;53.472;9.794;2023-07-29T07:52:56;19.30;98.80
15969;DHT22;8085;53.472;9.794;2023-07-29T07:55:22;19.30;98.90
15969;DHT22;8085;53.472;9.794;2023-07-29T07:57:51;19.30;98.80
15969;DHT22;8085;53.472;9.794;2023-07-29T08:00:18;19.30;98.90
15969;DHT22;8085;53.472;9.794;2023-07-29T08:02:45;19.50;98.80
15969;DHT22;8085;53.472;9.794;2023-07-29T08:05:12;19.50;98.60
15969;DHT22;8085;53.472;9.794;2023-07-29T08:07:39;19.60;98.40
15969;DHT22;8085;53.472;9.794;2023-07-29T08:10:07;19.60;98.20
15969;DHT22;8085;53.472;9.794;2023-07-29T08:12:34;19.80;97.90
15969;DHT22;8085;53.472;9.794;2023-07-29T08:15:02;19.80;97.80
15969;DHT22;8085;53.472;9.794;2023-07-29T08:17:29;19.90;97.70
15969;DHT22;8085;53.472;9.794;2023-07-29T08:19:56;19.90;97.60
15969;DHT22;8085;53.472;9.794;2023-07-29T08:22:23;20.00;97.30
15969;DHT22;8085;53.472;9.794;2023-07-29T08:24:49;20.00;96.70
15969;DHT22;8085;53.472;9.794;2023-07-29T08:27:16;20.00;96.90
15969;DHT22;8085;53.472;9.794;2023-07-29T08:29:43;20.00;96.90
15969;DHT22;8085;53.472;9.794;2023-07-29T08:32:11;20.10;96.40
15969;DHT22;8085;53.472;9.794;2023-07-29T08:34:38;20.10;96.20
15969;DHT22;8085;53.472;9.794;2023-07-29T08:37:06;20.10;96.10
15969;DHT22;8085;53.472;9.794;2023-07-29T08:39:32;20.10;95.70
15969;DHT22;8085;53.472;9.794;2023-07-29T08:42:02;20.10;95.90
15969;DHT22;8085;53.472;9.794;2023-07-29T08:44:35;20.00;96.20
15969;DHT22;8085;53.472;9.794;2023-07-29T08:47:03;20.10;96.20
15969;DHT22;8085;53.472;9.794;2023-07-29T08:49:32;20.10;96.40
15969;DHT22;8085;53.472;9.794;2023-07-29T08:51:59;20.20;95.80
15969;DHT22;8085;53.472;9.794;2023-07-29T08:54:27;20.20;95.20
15969;DHT22;8085;53.472;9.794;2023-07-29T08:56:54;20.20;95.20
15969;DHT22;8085;53.472;9.794;2023-07-29T08:59:21;20.30;95.20
15969;DHT22;8085;53.472;9.794;2023-07-29T09:01:49;20.30;95.40
15969;DHT22;8085;53.472;9.794;2023-07-29T09:04:18;20.30;95.30
15969;DHT22;8085;53.472;9.794;2023-07-29T09:06:50;20.50;95.20
15969;DHT22;8085;53.472;9.794;2023-07-29T09:09:17;20.50;95.10
15969;DHT22;8085;53.472;9.794;2023-07-29T09:11:44;20.50;95.10
15969;DHT22;8085;53.472;9.794;2023-07-29T09:14:12;20.60;94.50
15969;DHT22;8085;53.472;9.794;2023-07-29T09:16:40;20.70;93.80
15969;DHT22;8085;53.472;9.794;2023-07-29T09:19:06;20.70;93.70
15969;DHT22;8085;53.472;9.794;2023-07-29T09:21:33;20.80;93.20
15969;DHT22;8085;53.472;9.794;2023-07-29T09:24:04;20.80;92.30
15969;DHT22;8085;53.472;9.794;2023-07-29T09:26:33;20.90;91.40
15969;DHT22;8085;53.472;9.794;2023-07-29T09:29:00;20.90;91.90
15969;DHT22;8085;53.472;9.794;2023-07-29T09:31:28;20.90;92.40
15969;DHT22;8085;53.472;9.794;2023-07-29T09:33:56;20.90;92.40
15969;DHT22;8085;53.472;9.794;2023-07-29T09:36:25;20.90;91.90
15969;DHT22;8085;53.472;9.794;2023-07-29T09:38:55;21.00;92.10
15969;DHT22;8085;53.472;9.794;2023-07-29T09:41:25;21.10;92.40
15969;DHT22;8085;53.472;9.794;2023-07-29T09:43:56;21.10;91.70
15969;DHT22;8085;53.472;9.794;2023-07-29T09:46:24;21.30;91.10
15969;DHT22;8085;53.472;9.794;2023-07-29T09:48:53;21.40;89.80
15969;DHT22;8085;53.472;9.794;2023-07-29T09:51:21;21.40;88.40
15969;DHT22;8085;53.472;9.794;2023-07-29T09:53:50;21.50;87.00
15969;DHT22;8085;53.472;9.794;2023-07-29T09:56:17;21.60;86.10
15969;DHT22;8085;53.472;9.794;2023-07-29T09:58:46;21.70;81.20
15969;DHT22;8085;53.472;9.794;2023-07-29T10:01:14;21.80;82.40
15969;DHT22;8085;53.472;9.794;2023-07-29T10:03:42;21.80;83.50
15969;DHT22;8085;53.472;9.794;2023-07-29T10:06:10;21.80;81.50
15969;DHT22;8085;53.472;9.794;2023-07-29T10:08:39;21.80;82.60
15969;DHT22;8085;53.472;9.794;2023-07-29T10:11:06;21.80;83.50
15969;DHT22;8085;53.472;9.794;2023-07-29T10:13:34;21.90;82.70
15969;DHT22;8085;53.472;9.794;2023-07-29T10:16:03;21.90;81.60
15969;DHT22;8085;53.472;9.794;2023-07-29T10:18:31;21.90;82.00
15969;DHT22;8085;53.472;9.794;2023-07-29T10:21:00;21.90;81.80
15969;DHT22;8085;53.472;9.794;2023-07-29T10:23:28;21.80;81.60
15969;DHT22;8085;53.472;9.794;2023-07-29T10:25:59;21.80;81.80
15969;DHT22;8085;53.472;9.794;2023-07-29T10:28:30;21.70;80.50
15969;DHT22;8085;53.472;9.794;2023-07-29T10:30:58;21.70;79.70
15969;DHT22;8085;53.472;9.794;2023-07-29T10:33:27;21.80;80.00
15969;DHT22;8085;53.472;9.794;2023-07-29T10:35:54;21.90;79.20
15969;DHT22;8085;53.472;9.794;2023-07-29T10:38:22;21.90;78.70
15969;DHT22;8085;53.472;9.794;2023-07-29T10:40:51;21.90;77.90
15969;DHT22;8085;53.472;9.794;2023-07-29T10:43:19;22.00;75.80
15969;DHT22;8085;53.472;9.794;2023-07-29T10:45:50;22.00;76.60
15969;DHT22;8085;53.472;9.794;2023-07-29T10:48:42;22.00;78.20
15969;DHT22;8085;53.472;9.794;2023-07-29T10:51:25;22.00;77.60
15969;DHT22;8085;53.472;9.794;2023-07-29T10:53:58;22.00;78.30
15969;DHT22;8085;53.472;9.794;2023-07-29T10:56:30;22.10;78.00
15969;DHT22;8085;53.472;9.794;2023-07-29T10:59:02;22.10;76.50
15969;DHT22;8085;53.472;9.794;2023-07-29T11:01:51;22.00;76.50
15969;DHT22;8085;53.472;9.794;2023-07-29T11:04:27;21.90;77.90
15969;DHT22;8085;53.472;9.794;2023-07-29T11:07:20;21.80;78.40
15969;DHT22;8085;53.472;9.794;2023-07-29T11:09:57;21.80;79.20
15969;DHT22;8085;53.472;9.794;2023-07-29T11:12:41;21.70;78.40
15969;DHT22;8085;53.472;9.794;2023-07-29T11:15:22;21.80;78.20
15969;DHT22;8085;53.472;9.794;2023-07-29T11:17:51;21.80;76.50
15969;DHT22;8085;53.472;9.794;2023-07-29T11:20:21;21.90;75.50
15969;DHT22;8085;53.472;9.794;2023-07-29T11:22:48;22.00;77.10
15969;DHT22;8085;53.472;9.794;2023-07-29T11:25:16;22.20;75.50
15969;DHT22;8085;53.472;9.794;2023-07-29T11:27:44;22.40;72.80
15969;DHT22;8085;53.472;9.794;2023-07-29T11:30:13;22.60;72.80
15969;DHT22;8085;53.472;9.794;2023-07-29T11:32:41;22.70;73.40
15969;DHT22;8085;53.472;9.794;2023-07-29T11:35:09;22.90;72.90
15969;DHT22;8085;53.472;9.794;2023-07-29T11:37:39;23.10;72.60
15969;DHT22;8085;53.472;9.794;2023-07-29T11:40:07;23.20;70.70
15969;DHT22;8085;53.472;9.794;2023-07-29T11:42:36;23.20;68.60
15969;DHT22;8085;53.472;9.794;2023-07-29T11:45:04;23.10;68.20
15969;DHT22;8085;53.472;9.794;2023-07-29T11:47:32;23.10;67.20
15969;DHT22;8085;53.472;9.794;2023-07-29T11:50:02;23.00;68.30
15969;DHT22;8085;53.472;9.794;2023-07-29T11:52:31;23.00;68.80
15969;DHT22;8085;53.472;9.794;2023-07-29T11:55:00;22.90;69.70
15969;DHT22;8085;53.472;9.794;2023-07-29T11:57:28;22.90;71.00
15969;DHT22;8085;53.472;9.794;2023-07-29T11:59:55;23.00;69.10
15969;DHT22;8085;53.472;9.794;2023-07-29T12:02:23;23.20;67.20
15969;DHT22;8085;53.472;9.794;2023-07-29T12:04:51;23.20;67.50
15969;DHT22;8085;53.472;9.794;2023-07-29T12:07:21;23.30;67.20
15969;DHT22;8085;53.472;9.794;2023-07-29T12:09:49;23.40;66.70
15969;DHT22;8085;53.472;9.794;2023-07-29T12:12:18;23.50;65.30
15969;DHT22;8085;53.472;9.794;2023-07-29T12:14:45;23.50;63.60
15969;DHT22;8085;53.472;9.794;2023-07-29T12:17:13;23.60;62.30
15969;DHT22;8085;53.472;9.794;2023-07-29T12:19:41;23.60;61.60
15969;DHT22;8085;53.472;9.794;2023-07-29T12:22:09;23.50;64.10
15969;DHT22;8085;53.472;9.794;2023-07-29T12:24:38;23.40;64.20
15969;DHT22;8085;53.472;9.794;2023-07-29T12:27:10;23.30;65.30
15969;DHT22;8085;53.472;9.794;2023-07-29T12:29:41;23.30;65.10
15969;DHT22;8085;53.472;9.794;2023-07-29T12:32:09;23.30;66.60
15969;DHT22;8085;53.472;9.794;2023-07-29T12:34:37;23.30;65.40
15969;DHT22;8085;53.472;9.794;2023-07-29T12:37:05;23.30;64.70
15969;DHT22;8085;53.472;9.794;2023-07-29T12:39:34;23.40;66.00
15969;DHT22;8085;53.472;9.794;2023-07-29T12:42:02;23.40;64.90
15969;DHT22;8085;53.472;9.794;2023-07-29T12:44:31;23.50;63.00
15969;DHT22;8085;53.472;9.794;2023-07-29T12:47:00;23.60;64.90
15969;DHT22;8085;53.472;9.794;2023-07-29T12:49:28;23.70;64.00
15969;DHT22;8085;53.472;9.794;2023-07-29T12:51:55;23.90;62.80
15969;DHT22;8085;53.472;9.794;2023-07-29T12:54:22;24.00;60.90
15969;DHT22;8085;53.472;9.794;2023-07-29T12:56:49;24.20;61.40
15969;DHT22;8085;53.472;9.794;2023-07-29T12:59:16;24.40;61.80
15969;DHT22;8085;53.472;9.794;2023-07-29T13:01:43;24.50;59.80
15969;DHT22;8085;53.472;9.794;2023-07-29T13:04:11;24.60;60.10
15969;DHT22;8085;53.472;9.794;2023-07-29T13:06:38;24.70;60.50
15969;DHT22;8085;53.472;9.794;2023-07-29T13:09:05;24.70;60.10
15969;DHT22;8085;53.472;9.794;2023-07-29T13:11:32;24.80;61.30
15969;DHT22;8085;53.472;9.794;2023-07-29T13:13:59;24.80;59.60
15969;DHT22;8085;53.472;9.794;2023-07-29T13:16:27;24.70;59.30
15969;DHT22;8085;53.472;9.794;2023-07-29T13:18:54;24.50;59.00
15969;DHT22;8085;53.472;9.794;2023-07-29T13:21:22;24.50;59.90
15969;DHT22;8085;53.472;9.794;2023-07-29T13:23:49;24.50;59.90
15969;DHT22;8085;53.472;9.794;2023-07-29T13:26:15;24.40;60.10
15969;DHT22;8085;53.472;9.794;2023-07-29T13:28:42;24.40;59.90
15969;DHT22;8085;53.472;9.794;2023-07-29T13:31:09;24.40;59.60
15969;DHT22;8085;53.472;9.794;2023-07-29T13:33:36;24.40;59.70
15969;DHT22;8085;53.472;9.794;2023-07-29T13:36:03;24.40;60.00
15969;DHT22;8085;53.472;9.794;2023-07-29T13:38:32;24.40;59.60
15969;DHT22;8085;53.472;9.794;2023-07-29T13:40:58;24.40;60.50
15969;DHT22;8085;53.472;9.794;2023-07-29T13:43:25;24.30;60.70
15969;DHT22;8085;53.472;9.794;2023-07-29T13:45:52;24.40;60.10
15969;DHT22;8085;53.472;9.794;2023-07-29T13:48:19;24.50;60.90
15969;DHT22;8085;53.472;9.794;2023-07-29T13:50:46;24.60;60.40
15969;DHT22;8085;53.472;9.794;2023-07-29T13:53:13;24.70;59.00
15969;DHT22;8085;53.472;9.794;2023-07-29T13:55:41;24.80;58.80
15969;DHT22;8085;53.472;9.794;2023-07-29T13:58:09;24.80;58.30
15969;DHT22;8085;53.472;9.794;2023-07-29T14:00:36;24.70;59.10
15969;DHT22;8085;53.472;9.794;2023-07-29T14:03:03;24.70;59.70
15969;DHT22;8085;53.472;9.794;2023-07-29T14:05:30;24.70;59.40
15969;DHT22;8085;53.472;9.794;2023-07-29T14:07:57;24.70;58.40
15969;DHT22;8085;53.472;9.794;2023-07-29T14:10:24;24.80;58.80
15969;DHT22;8085;53.472;9.794;2023-07-29T14:12:52;24.90;59.10
15969;DHT22;8085;53.472;9.794;2023-07-29T14:15:20;25.00;59.90
15969;DHT22;8085;53.472;9.794;2023-07-29T14:17:47;25.10;57.50
15969;DHT22;8085;53.472;9.794;2023-07-29T14:20:14;25.30;58.00
15969;DHT22;8085;53.472;9.794;2023-07-29T14:22:41;25.30;55.80
15969;DHT22;8085;53.472;9.794;2023-07-29T14:25:08;25.30;56.40
15969;DHT22;8085;53.472;9.794;2023-07-29T14:27:35;25.20;56.30
15969;DHT22;8085;53.472;9.794;2023-07-29T14:30:04;25.20;56.40
15969;DHT22;8085;53.472;9.794;2023-07-29T14:32:31;25.20;57.30
15969;DHT22;8085;53.472;9.794;2023-07-29T14:34:58;25.20;57.80
15969;DHT22;8085;53.472;9.794;2023-07-29T14:37:29;25.10;57.00
15969;DHT22;8085;53.472;9.794;2023-07-29T14:39:57;25.20;54.50
15969;DHT22;8085;53.472;9.794;2023-07-29T14:42:23;25.20;55.00
15969;DHT22;8085;53.472;9.794;2023-07-29T14:44:50;25.20;55.60
15969;DHT22;8085;53.472;9.794;2023-07-29T14:47:18;25.30;56.50
15969;DHT22;8085;53.472;9.794;2023-07-29T14:49:45;25.30;55.00
15969;DHT22;8085;53.472;9.794;2023-07-29T14:52:13;25.30;55.40
15969;DHT22;8085;53.472;9.794;2023-07-29T14:54:40;25.40;54.40
15969;DHT22;8085;53.472;9.794;2023-07-29T14:57:10;25.40;55.00
15969;DHT22;8085;53.472;9.794;2023-07-29T14:59:37;25.40;54.60
15969;DHT22;8085;53.472;9.794;2023-07-29T15:02:05;25.30;54.40
15969;DHT22;8085;53.472;9.794;2023-07-29T15:04:33;25.20;54.00
15969;DHT22;8085;53.472;9.794;2023-07-29T15:07:01;25.20;53.80
15969;DHT22;8085;53.472;9.794;2023-07-29T15:09:28;25.30;53.20
15969;DHT22;8085;53.472;9.794;2023-07-29T15:11:55;25.40;54.10
15969;DHT22;8085;53.472;9.794;2023-07-29T15:14:22;25.30;53.40
15969;DHT22;8085;53.472;9.794;2023-07-29T15:16:49;25.30;53.70
15969;DHT22;8085;53.472;9.794;2023-07-29T15:19:16;25.30;53.80
15969;DHT22;8085;53.472;9.794;2023-07-29T15:21:44;25.30;54.20
15969;DHT22;8085;53.472;9.794;2023-07-29T15:24:11;25.30;54.10
15969;DHT22;8085;53.472;9.794;2023-07-29T15:26:38;25.30;53.50
15969;DHT22;8085;53.472;9.794;2023-07-29T15:29:05;25.30;52.70
15969;DHT22;8085;53.472;9.794;2023-07-29T15:31:33;25.30;53.20
15969;DHT22;8085;53.472;9.794;2023-07-29T15:34:00;25.20;54.00
15969;DHT22;8085;53.472;9.794;2023-07-29T15:36:27;25.00;53.30
15969;DHT22;8085;53.472;9.794;2023-07-29T15:38:55;24.90;54.10
15969;DHT22;8085;53.472;9.794;2023-07-29T15:41:22;24.70;55.10
15969;DHT22;8085;53.472;9.794;2023-07-29T15:43:49;24.50;55.20
15969;DHT22;8085;53.472;9.794;2023-07-29T15:46:15;24.40;55.10
15969;DHT22;8085;53.472;9.794;2023-07-29T15:48:43;24.20;55.20